createdAt,value
2022-12-05T00:01:24.522Z,339.45
2022-12-05T00:03:53.037Z,343.88
2022-12-05T00:06:20.135Z,340.23
2022-12-05T00:08:47.764Z,328.88
2022-12-05T00:11:16.610Z,335.88
2022-12-05T00:13:44.401Z,330.70
2022-12-05T00:16:13.027Z,352.23
2022-12-05T00:18:39.842Z,336.40
2022-12-05T00:21:07.693Z,350.20
2022-12-05T00:23:34.130Z,347.45
2022-12-05T00:26:05.062Z,345.15
2022-12-05T00:28:35.254Z,345.00
2022-12-05T00:31:07.178Z,354.20
2022-12-05T00:33:34.208Z,359.75
2022-12-05T00:36:07.990Z,344.90
2022-12-05T00:38:34.413Z,344.70
2022-12-05T00:41:09.111Z,352.20
2022-12-05T00:43:36.060Z,331.80
2022-12-05T00:46:03.852Z,359.33
2022-12-05T00:48:30.777Z,365.55
2022-12-05T00:51:39.267Z,364.98
2022-12-05T00:54:11.987Z,341.88
2022-12-05T00:56:39.217Z,343.80
2022-12-05T00:59:06.416Z,338.25
2022-12-05T01:01:37.013Z,372.45
2022-12-05T01:04:10.492Z,334.10
2022-12-05T01:06:36.902Z,331.00
2022-12-05T01:09:04.706Z,325.75
2022-12-05T01:11:33.132Z,355.88
2022-12-05T01:14:03.084Z,355.45
2022-12-05T01:16:32.857Z,337.85
2022-12-05T01:19:01.505Z,346.38
2022-12-05T01:21:28.014Z,346.17
2022-12-05T01:23:54.577Z,341.10
2022-12-05T01:26:22.604Z,326.98
2022-12-05T01:28:49.708Z,342.35
2022-12-05T01:31:22.388Z,326.65
2022-12-05T01:33:48.906Z,357.15
2022-12-05T01:36:15.717Z,360.70
2022-12-05T01:38:43.137Z,319.55
2022-12-05T01:41:14.856Z,333.83
2022-12-05T01:43:58.767Z,333.05
2022-12-05T01:46:26.775Z,341.98
2022-12-05T01:48:57.959Z,325.60
2022-12-05T01:53:51.679Z,333.23
2022-12-05T01:56:20.104Z,328.10
2022-12-05T01:58:47.884Z,340.60
2022-12-05T02:01:16.473Z,341.98
2022-12-05T02:03:44.710Z,318.90
2022-12-05T02:06:13.124Z,350.77
2022-12-05T02:08:40.985Z,331.33
2022-12-05T02:11:09.014Z,345.95
2022-12-05T02:14:02.944Z,337.40
2022-12-05T02:16:48.097Z,335.50
2022-12-05T02:19:31.151Z,355.10
2022-12-05T02:22:22.208Z,343.58
2022-12-05T02:25:04.697Z,343.80
2022-12-05T02:28:12.345Z,335.20
2022-12-05T02:30:42.076Z,336.60
2022-12-05T02:33:34.782Z,347.48
2022-12-05T02:36:21.815Z,322.95
2022-12-05T02:39:04.858Z,325.23
2022-12-05T02:41:40.460Z,336.77
2022-12-05T02:44:14.094Z,336.40
2022-12-05T02:46:42.906Z,327.42
2022-12-05T02:49:13.151Z,333.77
2022-12-05T02:51:44.781Z,309.50
2022-12-05T02:54:16.319Z,325.65
2022-12-05T02:56:46.422Z,314.58
2022-12-05T02:59:16.062Z,314.48
2022-12-05T03:01:47.265Z,289.13
2022-12-05T03:04:16.138Z,288.15
2022-12-05T03:06:51.415Z,301.10
2022-12-05T03:09:27.488Z,271.52
2022-12-05T03:12:07.725Z,286.48
2022-12-05T03:14:46.866Z,280.30
2022-12-05T03:17:20.326Z,256.83
2022-12-05T03:19:59.908Z,228.90
2022-12-05T03:22:35.491Z,230.38
2022-12-05T03:25:03.349Z,217.10
2022-12-05T03:27:46.901Z,227.90
2022-12-05T03:30:17.176Z,205.18
2022-12-05T03:32:57.699Z,204.87
2022-12-05T03:35:44.994Z,206.35
2022-12-05T03:38:14.967Z,187.70
2022-12-05T03:40:56.782Z,197.77
2022-12-05T03:43:44.928Z,195.18
2022-12-05T03:46:29.874Z,174.48
2022-12-05T03:49:04.908Z,189.35
2022-12-05T03:51:36.053Z,179.93
2022-12-05T03:56:44.214Z,155.63
2022-12-05T03:59:29.856Z,168.32
2022-12-05T04:01:59.153Z,176.88
2022-12-05T04:04:41.906Z,159.13
2022-12-05T04:07:10.447Z,148.63
2022-12-05T04:09:43.525Z,155.02
2022-12-05T04:12:17.235Z,163.13
2022-12-05T04:14:51.833Z,160.82
2022-12-05T04:17:21.641Z,165.80
2022-12-05T04:20:17.408Z,158.95
2022-12-05T04:22:44.683Z,159.75
2022-12-05T04:25:32.087Z,154.40
2022-12-05T04:28:12.249Z,157.80
2022-12-05T04:30:48.518Z,171.07
2022-12-05T04:33:35.505Z,165.93
2022-12-05T04:36:09.811Z,166.35
2022-12-05T04:38:43.027Z,161.82
2022-12-05T04:41:16.119Z,169.30
2022-12-05T04:43:45.015Z,158.40
2022-12-05T04:46:14.787Z,153.45
2022-12-05T04:48:45.244Z,156.20
2022-12-05T04:51:17.529Z,156.43
2022-12-05T04:53:46.298Z,156.70
2022-12-05T04:56:18.216Z,145.25
2022-12-05T04:58:45.025Z,153.57
2022-12-05T05:01:36.073Z,144.65
2022-12-05T05:04:09.893Z,134.52
2022-12-05T05:06:40.762Z,157.18
2022-12-05T05:09:07.547Z,138.32
2022-12-05T05:11:35.461Z,141.88
2022-12-05T05:14:02.553Z,143.32
2022-12-05T05:16:31.961Z,138.25
2022-12-05T05:18:58.425Z,126.75
2022-12-05T05:21:33.798Z,137.70
2022-12-05T05:24:01.010Z,125.18
2022-12-05T05:26:28.947Z,131.38
2022-12-05T05:28:57.259Z,110.63
2022-12-05T05:31:24.365Z,116.82
2022-12-05T05:33:52.887Z,125.22
2022-12-05T05:36:20.680Z,122.93
2022-12-05T05:38:50.469Z,120.85
2022-12-05T05:41:20.074Z,118.95
2022-12-05T05:43:47.308Z,113.43
2022-12-05T05:46:15.490Z,120.18
2022-12-05T05:48:41.904Z,108.03
2022-12-05T05:51:10.623Z,118.10
2022-12-05T05:53:37.663Z,108.90
2022-12-05T05:56:05.978Z,115.68
2022-12-05T05:58:32.486Z,112.20
2022-12-05T06:01:15.729Z,100.18
2022-12-05T06:03:42.464Z,102.30
2022-12-05T06:06:11.949Z,103.47
2022-12-05T06:08:40.394Z,107.78
2022-12-05T06:11:11.545Z,100.10
2022-12-05T06:16:06.593Z,95.05
2022-12-05T06:18:33.561Z,95.30
2022-12-05T06:20:59.989Z,92.30
2022-12-05T06:23:27.098Z,95.20
2022-12-05T06:25:55.263Z,106.97
2022-12-05T06:28:23.364Z,94.57
2022-12-05T06:30:50.384Z,88.18
2022-12-05T06:33:16.920Z,96.90
2022-12-05T06:35:43.530Z,88.03
2022-12-05T06:38:10.788Z,100.25
2022-12-05T06:40:44.923Z,83.55
2022-12-05T06:43:11.717Z,85.15
2022-12-05T06:45:38.946Z,98.30
2022-12-05T06:48:06.371Z,85.60
2022-12-05T06:50:32.917Z,81.13
2022-12-05T06:56:17.677Z,83.60
2022-12-05T06:58:45.553Z,79.25
2022-12-05T07:01:32.452Z,91.60
2022-12-05T07:03:59.549Z,87.47
2022-12-05T07:06:26.573Z,90.82
2022-12-05T07:08:53.114Z,95.72
2022-12-05T07:11:19.816Z,91.72
2022-12-05T07:13:46.482Z,82.28
2022-12-05T07:16:12.961Z,74.93
2022-12-05T07:18:39.421Z,77.60
2022-12-05T07:21:13.158Z,78.50
2022-12-05T07:23:40.966Z,84.75
2022-12-05T07:26:09.183Z,81.35
2022-12-05T07:28:36.361Z,75.68
2022-12-05T07:31:05.257Z,73.25
2022-12-05T07:33:31.664Z,71.78
2022-12-05T07:36:02.683Z,73.72
2022-12-05T07:38:29.433Z,77.43
2022-12-05T07:40:56.355Z,66.85
2022-12-05T07:43:23.191Z,78.50
2022-12-05T07:45:49.901Z,71.53
2022-12-05T07:48:18.828Z,79.60
2022-12-05T07:50:45.505Z,75.50
2022-12-05T07:53:11.987Z,69.70
2022-12-05T07:55:39.042Z,85.90
2022-12-05T07:58:05.474Z,75.00
2022-12-05T08:00:31.870Z,72.28
2022-12-05T08:02:58.437Z,71.72
2022-12-05T08:05:24.905Z,73.65
2022-12-05T08:07:51.380Z,74.30
2022-12-05T08:10:17.909Z,71.03
2022-12-05T08:12:44.306Z,75.80
2022-12-05T08:15:10.864Z,73.75
2022-12-05T08:17:37.283Z,73.90
2022-12-05T08:20:03.912Z,67.70
2022-12-05T08:22:30.319Z,81.50
2022-12-05T08:24:56.723Z,70.93
2022-12-05T08:27:23.155Z,70.88
2022-12-05T08:29:49.550Z,63.22
2022-12-05T08:32:15.944Z,71.72
2022-12-05T08:34:42.462Z,78.07
2022-12-05T08:37:08.910Z,66.18
2022-12-05T08:39:38.661Z,75.38
2022-12-05T08:42:05.528Z,68.95
2022-12-05T08:44:31.897Z,73.18
2022-12-05T08:46:58.305Z,68.55
2022-12-05T08:49:24.686Z,78.47
2022-12-05T08:51:51.130Z,69.18
2022-12-05T08:54:17.958Z,73.47
2022-12-05T08:56:44.356Z,81.70
2022-12-05T08:59:10.745Z,74.53
2022-12-05T09:01:39.157Z,72.75
2022-12-05T09:04:06.202Z,67.15
2022-12-05T09:06:34.271Z,69.57
2022-12-05T09:09:04.663Z,73.70
2022-12-05T09:11:33.877Z,68.88
2022-12-05T09:14:01.451Z,66.50
2022-12-05T09:16:38.154Z,71.97
2022-12-05T09:19:27.632Z,56.65
2022-12-05T09:21:55.141Z,69.63
2022-12-05T09:24:21.523Z,64.25
2022-12-05T09:26:47.928Z,68.80
2022-12-05T09:29:17.334Z,74.43
2022-12-05T09:31:46.470Z,72.00
2022-12-05T09:34:14.835Z,68.22
2022-12-05T09:36:41.542Z,66.00
2022-12-05T09:39:08.291Z,72.90
2022-12-05T09:42:13.199Z,70.03
2022-12-05T09:45:04.614Z,68.90
2022-12-05T09:50:19.296Z,65.35
2022-12-05T09:52:56.554Z,70.22
2022-12-05T09:55:23.134Z,64.85
2022-12-05T09:57:56.505Z,76.00
2022-12-05T10:00:23.273Z,74.80
2022-12-05T10:03:08.633Z,69.32
2022-12-05T10:05:47.609Z,78.60
2022-12-05T10:08:30.387Z,76.75
2022-12-05T10:11:03.768Z,71.78
2022-12-05T10:13:48.375Z,76.90
2022-12-05T10:16:31.046Z,72.30
2022-12-05T10:19:02.337Z,72.32
2022-12-05T10:21:36.682Z,77.38
2022-12-05T10:24:12.069Z,78.28
2022-12-05T10:26:45.490Z,75.40
2022-12-05T10:29:17.676Z,76.80
2022-12-05T10:31:47.659Z,71.80
2022-12-05T10:34:21.576Z,79.38
2022-12-05T10:36:57.597Z,76.20
2022-12-05T10:39:24.256Z,70.65
2022-12-05T10:41:50.788Z,72.72
2022-12-05T10:44:17.214Z,82.55
2022-12-05T10:46:43.951Z,85.78
2022-12-05T10:49:12.197Z,88.03
2022-12-05T10:51:39.978Z,71.82
2022-12-05T10:54:18.040Z,82.20
2022-12-05T10:56:47.649Z,75.93
2022-12-05T10:59:19.509Z,84.45
2022-12-05T11:01:50.892Z,79.78
2022-12-05T11:04:43.384Z,77.47
2022-12-05T11:07:26.332Z,85.07
2022-12-05T11:09:52.938Z,87.40
2022-12-05T11:12:25.420Z,74.57
2022-12-05T11:15:01.443Z,77.35
2022-12-05T11:17:33.046Z,78.88
2022-12-05T11:19:59.874Z,87.38
2022-12-05T11:22:36.257Z,90.13
2022-12-05T11:25:25.384Z,87.70
2022-12-05T11:27:52.311Z,77.28
2022-12-05T11:30:21.354Z,86.93
2022-12-05T11:32:47.826Z,81.47
2022-12-05T11:35:17.363Z,77.78
2022-12-05T11:37:47.759Z,80.32
2022-12-05T11:40:17.270Z,81.95
2022-12-05T11:43:08.315Z,75.22
2022-12-05T11:45:49.129Z,77.68
2022-12-05T11:48:18.421Z,81.53
2022-12-05T11:51:24.603Z,70.43
2022-12-05T11:55:03.865Z,69.15
2022-12-05T11:58:00.240Z,74.28
2022-12-05T12:00:37.357Z,75.20
2022-12-05T12:03:32.876Z,79.00
2022-12-05T12:06:22.683Z,72.05
2022-12-05T12:09:07.950Z,67.97
2022-12-05T12:12:05.514Z,74.43
2022-12-05T12:14:50.990Z,74.65
2022-12-05T12:17:54.608Z,74.15
2022-12-05T12:20:35.301Z,71.10
2022-12-05T12:23:40.624Z,75.85
2022-12-05T12:26:13.043Z,72.10
2022-12-05T12:28:50.491Z,77.18
2022-12-05T12:31:49.189Z,75.57
2022-12-05T12:34:30.716Z,83.63
2022-12-05T12:37:23.987Z,73.75
2022-12-05T12:39:56.520Z,78.97
2022-12-05T12:42:48.891Z,85.90
2022-12-05T12:45:23.428Z,76.88
2022-12-05T12:48:11.893Z,83.20
2022-12-05T12:50:44.078Z,85.38
2022-12-05T12:53:29.196Z,89.03
2022-12-05T12:56:17.358Z,86.30
2022-12-05T12:59:17.376Z,84.05
2022-12-05T13:01:53.442Z,81.95
2022-12-05T13:04:34.611Z,85.65
2022-12-05T13:07:08.257Z,91.63
2022-12-05T13:09:34.568Z,84.22
2022-12-05T13:12:07.144Z,90.78
2022-12-05T13:14:37.154Z,94.53
2022-12-05T13:17:07.440Z,95.38
2022-12-05T13:19:46.476Z,87.47
2022-12-05T13:22:15.112Z,97.50
2022-12-05T13:24:42.711Z,97.43
2022-12-05T13:27:25.064Z,103.78
2022-12-05T13:30:03.108Z,96.53
2022-12-05T13:32:33.266Z,109.50
2022-12-05T13:35:11.435Z,107.85
2022-12-05T13:38:05.202Z,99.75
2022-12-05T13:40:54.693Z,118.03
2022-12-05T13:43:25.523Z,103.30
2022-12-05T13:46:05.394Z,108.57
2022-12-05T13:48:36.597Z,104.22
2022-12-05T13:51:20.173Z,104.88
2022-12-05T13:54:01.013Z,103.82
2022-12-05T13:56:46.256Z,105.45
2022-12-05T13:59:12.711Z,113.93
2022-12-05T14:01:51.972Z,111.53
2022-12-05T14:04:43.292Z,112.80
2022-12-05T14:07:10.815Z,111.95
2022-12-05T14:09:54.419Z,119.40
2022-12-05T14:12:20.831Z,118.85
2022-12-05T14:15:00.674Z,109.30
2022-12-05T14:17:30.300Z,121.53
2022-12-05T14:20:15.701Z,119.78
2022-12-05T14:23:06.915Z,110.43
2022-12-05T14:28:42.992Z,81.63
2022-12-05T14:31:34.432Z,117.47
2022-12-05T14:34:06.276Z,125.47
2022-12-05T14:36:33.787Z,122.55
2022-12-05T14:39:00.241Z,113.40
2022-12-05T14:41:33.253Z,123.75
2022-12-05T14:44:08.113Z,117.43
2022-12-05T14:46:35.333Z,109.20
2022-12-05T14:49:44.058Z,114.15
2022-12-05T14:52:20.990Z,124.95
2022-12-05T14:54:51.841Z,117.32
2022-12-05T14:57:19.605Z,121.65
2022-12-05T15:00:00.456Z,122.28
2022-12-05T15:02:35.817Z,114.53
2022-12-05T15:05:05.570Z,110.50
2022-12-05T15:07:37.047Z,118.75
2022-12-05T15:10:13.499Z,121.22
2022-12-05T15:12:45.143Z,110.70
2022-12-05T15:15:17.463Z,107.20
2022-12-05T15:17:54.919Z,120.70
2022-12-05T15:20:41.669Z,135.25
2022-12-05T15:23:42.286Z,140.23
2022-12-05T15:29:13.183Z,121.00
2022-12-05T15:32:02.909Z,114.20
2022-12-05T15:34:35.875Z,122.90
2022-12-05T15:37:10.760Z,144.15
2022-12-05T15:40:14.651Z,140.70
2022-12-05T15:42:46.807Z,165.45
2022-12-05T15:45:13.513Z,146.57
2022-12-05T15:47:44.934Z,147.70
2022-12-05T15:50:15.210Z,141.88
2022-12-05T15:53:04.178Z,131.10
2022-12-05T15:55:40.351Z,156.70
2022-12-05T15:58:29.715Z,137.88
2022-12-05T16:01:01.047Z,125.78
2022-12-05T16:03:43.473Z,148.88
2022-12-05T16:06:18.202Z,142.63
2022-12-05T16:08:46.608Z,137.88
2022-12-05T16:11:14.742Z,145.20
2022-12-05T16:13:47.778Z,148.45
2022-12-05T16:16:19.138Z,137.32
2022-12-05T16:18:54.781Z,114.95
2022-12-05T16:21:40.857Z,152.30
2022-12-05T16:24:18.526Z,148.23
2022-12-05T16:27:13.254Z,124.60
2022-12-05T16:29:39.956Z,138.73
2022-12-05T16:32:23.012Z,129.80
2022-12-05T16:34:49.751Z,132.73
2022-12-05T16:37:24.726Z,142.63
2022-12-05T16:39:51.312Z,130.10
2022-12-05T16:42:28.492Z,124.82
2022-12-05T16:45:03.654Z,110.57
2022-12-05T16:47:42.222Z,125.70
2022-12-05T16:50:24.095Z,118.30
2022-12-05T16:52:51.142Z,108.38
2022-12-05T16:55:17.541Z,100.85
2022-12-05T16:57:43.951Z,107.90
2022-12-05T17:00:14.774Z,105.72
2022-12-05T17:02:41.251Z,116.07
2022-12-05T17:05:13.811Z,107.68
2022-12-05T17:07:40.274Z,103.93
2022-12-05T17:10:07.535Z,99.18
2022-12-05T17:12:34.343Z,86.97
2022-12-05T17:15:00.918Z,103.82
2022-12-05T17:17:27.574Z,99.45
2022-12-05T17:19:54.006Z,92.47
2022-12-05T17:22:20.430Z,95.60
2022-12-05T17:24:46.865Z,98.05
2022-12-05T17:27:13.266Z,97.35
2022-12-05T17:29:39.727Z,95.30
2022-12-05T17:32:06.126Z,93.03
2022-12-05T17:34:32.560Z,88.88
2022-12-05T17:37:00.165Z,98.55
2022-12-05T17:39:28.555Z,99.53
2022-12-05T17:41:55.562Z,105.68
2022-12-05T17:44:22.182Z,94.13
2022-12-05T17:46:49.281Z,102.05
2022-12-05T17:49:17.913Z,98.78
2022-12-05T17:52:13.404Z,91.47
2022-12-05T17:54:41.031Z,100.57
2022-12-05T17:57:07.423Z,95.43
2022-12-05T17:59:33.840Z,106.70
2022-12-05T18:02:00.246Z,107.63
2022-12-05T18:04:26.657Z,105.65
2022-12-05T18:06:53.066Z,107.63
2022-12-05T18:09:19.574Z,107.40
2022-12-05T18:11:45.963Z,92.03
2022-12-05T18:14:12.363Z,106.18
2022-12-05T18:16:38.868Z,110.65
2022-12-05T18:19:05.290Z,110.13
2022-12-05T18:21:31.737Z,112.60
2022-12-05T18:23:58.131Z,112.18
2022-12-05T18:26:24.566Z,117.55
2022-12-05T18:28:51.613Z,117.72
2022-12-05T18:31:18.062Z,122.35
2022-12-05T18:33:46.090Z,129.93
2022-12-05T18:36:15.855Z,114.10
2022-12-05T18:38:43.313Z,118.32
2022-12-05T18:41:10.301Z,128.63
2022-12-05T18:43:36.723Z,141.88
2022-12-05T18:46:04.418Z,141.10
2022-12-05T18:48:39.359Z,116.75
2022-12-05T18:51:21.182Z,133.73
2022-12-05T18:53:52.563Z,131.00
2022-12-05T18:56:28.214Z,117.00
2022-12-05T18:59:01.854Z,118.70
2022-12-05T19:01:30.777Z,117.47
2022-12-05T19:03:58.559Z,120.07
2022-12-05T19:06:27.502Z,131.95
2022-12-05T19:08:55.429Z,122.28
2022-12-05T19:11:22.365Z,123.10
2022-12-05T19:13:49.727Z,91.00
2022-12-05T19:16:18.391Z,98.95
2022-12-05T19:18:45.349Z,103.70
2022-12-05T19:21:12.590Z,98.43
2022-12-05T19:23:39.516Z,101.80
2022-12-05T19:26:08.160Z,90.43
2022-12-05T19:28:35.889Z,98.32
2022-12-05T19:31:03.447Z,94.05
2022-12-05T19:33:34.381Z,85.20
2022-12-05T19:36:11.302Z,86.85
2022-12-05T19:38:39.249Z,94.18
2022-12-05T19:41:07.146Z,75.53
2022-12-05T19:43:34.670Z,84.57
2022-12-05T19:46:10.558Z,86.60
2022-12-05T19:48:37.012Z,73.22
2022-12-05T19:51:04.050Z,85.25
2022-12-05T19:53:33.203Z,75.93
2022-12-05T19:56:01.539Z,82.40
2022-12-05T19:58:30.574Z,73.72
2022-12-05T20:00:57.936Z,82.80
2022-12-05T20:03:24.448Z,78.95
2022-12-05T20:05:58.240Z,70.65
2022-12-05T20:08:24.998Z,72.90
2022-12-05T20:10:52.638Z,74.85
2022-12-05T20:13:46.325Z,75.13
2022-12-05T20:16:12.149Z,65.30
2022-12-05T20:18:40.021Z,85.63
2022-12-05T20:21:09.683Z,82.63
2022-12-05T20:23:36.839Z,76.82
2022-12-05T20:26:06.541Z,83.43
2022-12-05T20:28:33.586Z,84.20
2022-12-05T20:31:14.988Z,88.18
2022-12-05T20:33:41.932Z,73.60
2022-12-05T20:36:13.779Z,97.03
2022-12-05T20:38:40.856Z,83.53
2022-12-05T20:41:11.283Z,77.22
2022-12-05T20:43:38.173Z,66.05
2022-12-05T20:46:10.448Z,70.60
2022-12-05T20:48:36.926Z,76.22
2022-12-05T20:51:08.712Z,66.93
2022-12-05T20:53:36.824Z,74.40
2022-12-05T20:56:18.301Z,66.50
2022-12-05T21:01:13.641Z,81.70
2022-12-05T21:03:46.075Z,69.75
2022-12-05T21:06:15.375Z,73.00
2022-12-05T21:08:42.193Z,80.65
2022-12-05T21:11:09.485Z,80.03
2022-12-05T21:13:36.334Z,75.75
2022-12-05T21:16:08.701Z,92.90
2022-12-05T21:18:35.866Z,77.80
2022-12-05T21:21:05.176Z,73.63
2022-12-05T21:23:32.236Z,80.90
2022-12-05T21:26:07.202Z,83.82
2022-12-05T21:28:34.733Z,77.85
2022-12-05T21:31:09.310Z,79.35
2022-12-05T21:33:35.988Z,82.72
2022-12-05T21:36:02.420Z,74.20
2022-12-05T21:38:28.834Z,78.90
2022-12-05T21:40:55.214Z,80.03
2022-12-05T21:43:21.613Z,89.43
2022-12-05T21:45:53.218Z,75.18
2022-12-05T21:48:20.968Z,67.45
2022-12-05T21:50:47.883Z,73.28
2022-12-05T21:53:14.320Z,70.47
2022-12-05T21:55:41.721Z,66.97
2022-12-05T21:58:08.108Z,75.55
2022-12-05T22:00:34.722Z,81.43
2022-12-05T22:03:01.212Z,73.30
2022-12-05T22:05:27.656Z,75.28
2022-12-05T22:07:54.150Z,68.55
2022-12-05T22:10:20.665Z,76.70
2022-12-05T22:12:47.152Z,86.40
2022-12-05T22:15:14.623Z,70.85
2022-12-05T22:17:41.049Z,60.78
2022-12-05T22:20:07.663Z,60.40
2022-12-05T22:22:35.283Z,60.95
2022-12-05T22:25:01.808Z,63.70
2022-12-05T22:27:29.883Z,68.13
2022-12-05T22:29:56.366Z,68.05
2022-12-05T22:32:22.828Z,62.90
2022-12-05T22:34:49.220Z,55.50
2022-12-05T22:37:15.609Z,58.78
2022-12-05T22:39:42.014Z,62.72
2022-12-05T22:42:08.391Z,55.88
2022-12-05T22:44:34.831Z,60.75
2022-12-05T22:47:01.317Z,59.25
2022-12-05T22:49:27.772Z,57.15
2022-12-05T22:51:54.190Z,63.03
2022-12-05T22:54:21.038Z,52.25
2022-12-05T22:56:49.147Z,54.15
2022-12-05T22:59:15.530Z,56.67
2022-12-05T23:01:41.954Z,51.22
2022-12-05T23:04:11.519Z,50.10
2022-12-05T23:06:38.919Z,53.33
2022-12-05T23:09:10.377Z,53.67
2022-12-05T23:11:36.832Z,43.85
2022-12-05T23:14:03.590Z,45.13
2022-12-05T23:16:32.078Z,48.60
2022-12-05T23:19:00.537Z,47.28
2022-12-05T23:21:36.479Z,46.92
2022-12-05T23:24:06.234Z,47.38
2022-12-05T23:26:35.745Z,47.50
2022-12-05T23:29:02.180Z,46.33
2022-12-05T23:31:28.649Z,43.67
2022-12-05T23:33:59.734Z,44.92
2022-12-05T23:36:29.182Z,43.60
2022-12-05T23:38:55.572Z,39.67
2022-12-05T23:41:24.018Z,44.97
2022-12-05T23:43:51.581Z,38.92
2022-12-05T23:46:21.404Z,36.72
2022-12-05T23:48:48.642Z,37.70
2022-12-05T23:51:18.460Z,39.80
2022-12-05T23:53:47.130Z,35.17
2022-12-05T23:56:19.484Z,38.35
2022-12-05T23:58:46.192Z,42.45
